Time;durP1;ratioP1;P1;durP2;ratioP2;P2;SDS_P1;SDS_P2;PMS_P1;PMS_P2;Temp;Humidity;BMP_temperature;BMP_pressure;BME280_temperature;BME280_humidity;BME280_pressure;Samples;Min_cycle;Max_cycle;Signal;HPM_P1;HPM_P2
2024/01/30 00:01:25;;;;;;;2.83;2.63;;;18.80;40.70;;;;;;5030140;28;20713;-75
2024/01/30 00:03:51;;;;;;;2.80;2.70;;;18.90;40.80;;;;;;5023591;28;20589;-77
2024/01/30 00:06:20;;;;;;;2.80;2.70;;;18.80;40.70;;;;;;5023790;28;20249;-73
2024/01/30 00:08:48;;;;;;;3.13;2.93;;;18.80;40.70;;;;;;5034627;28;20226;-74
2024/01/30 00:11:14;;;;;;;3.17;2.97;;;18.90;40.80;;;;;;5027870;28;20426;-70
2024/01/30 00:13:39;;;;;;;3.23;2.97;;;18.90;40.80;;;;;;5030603;28;20468;-71
2024/01/30 00:16:05;;;;;;;2.87;2.73;;;18.80;40.70;;;;;;5032772;28;20328;-69
2024/01/30 00:18:31;;;;;;;3.30;3.10;;;18.90;40.80;;;;;;5014573;28;20242;-68
2024/01/30 00:20:56;;;;;;;3.03;2.83;;;18.90;40.80;;;;;;5026850;28;20689;-71
2024/01/30 00:23:22;;;;;;;2.87;2.77;;;18.90;40.80;;;;;;5033021;28;20214;-71
2024/01/30 00:25:47;;;;;;;3.27;3.07;;;18.80;40.70;;;;;;5009777;28;20214;-70
2024/01/30 00:28:13;;;;;;;3.03;2.90;;;18.80;40.70;;;;;;5028060;28;20218;-69
2024/01/30 00:30:39;;;;;;;3.43;3.23;;;18.90;40.80;;;;;;5037116;28;20258;-70
2024/01/30 00:33:04;;;;;;;2.70;2.60;;;18.90;40.80;;;;;;5026551;28;20266;-69
2024/01/30 00:35:30;;;;;;;2.70;2.60;;;18.80;40.70;;;;;;5019511;28;20230;-70
2024/01/30 00:37:55;;;;;;;3.40;3.20;;;18.90;40.80;;;;;;5033491;28;20218;-69
2024/01/30 00:40:21;;;;;;;3.17;2.97;;;18.80;40.70;;;;;;5021648;28;20251;-70
2024/01/30 00:42:46;;;;;;;2.57;2.47;;;18.80;40.70;;;;;;5037881;28;20553;-70
2024/01/30 00:45:14;;;;;;;3.27;3.07;;;18.80;40.70;;;;;;5036371;28;20300;-69
2024/01/30 00:47:40;;;;;;;3.07;2.90;;;18.90;40.80;;;;;;5028058;28;20778;-69
2024/01/30 00:50:06;;;;;;;2.87;2.70;;;18.80;40.70;;;;;;5030137;28;20401;-70
2024/01/30 00:52:32;;;;;;;2.77;2.57;;;18.80;40.70;;;;;;5036001;28;20229;-73
2024/01/30 00:54:58;;;;;;;3.40;3.20;;;18.80;40.70;;;;;;5031733;28;20581;-71
2024/01/30 00:57:24;;;;;;;3.00;2.83;;;18.80;40.70;;;;;;5038098;28;21415;-71
2024/01/30 00:59:50;;;;;;;2.80;2.60;;;18.80;40.60;;;;;;5033602;28;20407;-73
2024/01/30 01:02:17;;;;;;;3.13;2.93;;;18.80;40.70;;;;;;5041488;28;20701;-71
2024/01/30 01:04:42;;;;;;;3.07;2.87;;;18.90;40.80;;;;;;5020290;28;20223;-71
2024/01/30 01:07:08;;;;;;;3.03;2.93;;;18.80;40.70;;;;;;5023684;28;20430;-71
2024/01/30 01:09:33;;;;;;;3.03;2.83;;;18.90;40.80;;;;;;5018226;28;20221;-72
2024/01/30 01:11:59;;;;;;;3.30;3.10;;;18.90;40.80;;;;;;5028888;28;20309;-69
2024/01/30 01:14:25;;;;;;;3.43;3.03;;;18.90;40.80;;;;;;5027424;28;20230;-71
2024/01/30 01:16:50;;;;;;;2.80;2.60;;;18.80;40.70;;;;;;5033507;28;20228;-69
2024/01/30 01:19:16;;;;;;;3.30;3.10;;;18.80;40.70;;;;;;5024700;28;20324;-73
2024/01/30 01:21:41;;;;;;;3.20;3.00;;;18.80;40.70;;;;;;5032740;28;20238;-69
2024/01/30 01:24:07;;;;;;;3.13;2.93;;;18.80;40.70;;;;;;5023273;28;20685;-69
2024/01/30 01:26:33;;;;;;;3.03;2.83;;;18.90;40.80;;;;;;5020832;28;20240;-69
2024/01/30 01:28:58;;;;;;;2.67;2.57;;;18.80;40.70;;;;;;5022894;28;20247;-71
2024/01/30 01:31:24;;;;;;;2.80;2.70;;;18.80;40.70;;;;;;5031439;28;20222;-70
2024/01/30 01:33:50;;;;;;;3.37;3.17;;;18.80;40.70;;;;;;5023930;28;20317;-70
2024/01/30 01:36:16;;;;;;;3.73;3.53;;;18.80;40.70;;;;;;5039837;28;20445;-69
2024/01/30 01:38:41;;;;;;;3.10;2.90;;;18.80;40.80;;;;;;5023509;28;20355;-70
2024/01/30 01:41:07;;;;;;;3.33;3.13;;;18.80;41.50;;;;;;5028681;28;20218;-69
2024/01/30 01:43:33;;;;;;;3.40;3.20;;;18.80;40.70;;;;;;5021755;28;20776;-69
2024/01/30 01:45:59;;;;;;;3.10;2.90;;;18.80;40.70;;;;;;5019067;28;20749;-69
2024/01/30 01:48:25;;;;;;;2.73;2.63;;;18.80;40.70;;;;;;5028292;28;20222;-70
2024/01/30 01:50:52;;;;;;;3.23;3.03;;;18.80;40.70;;;;;;5015961;28;20704;-70
2024/01/30 01:53:17;;;;;;;3.33;2.90;;;18.80;40.80;;;;;;5021799;28;20461;-69
2024/01/30 01:55:43;;;;;;;3.00;2.80;;;18.80;40.80;;;;;;5031282;28;20450;-68
2024/01/30 01:58:10;;;;;;;3.27;3.07;;;18.80;40.70;;;;;;5027890;28;20268;-69
2024/01/30 02:00:39;;;;;;;3.40;3.20;;;18.80;40.80;;;;;;5028044;28;20387;-77
2024/01/30 02:03:06;;;;;;;3.10;2.90;;;18.80;40.80;;;;;;5015150;28;20563;-77
2024/01/30 02:05:32;;;;;;;2.87;2.67;;;18.80;40.70;;;;;;5031085;28;20471;-75
2024/01/30 02:07:58;;;;;;;3.13;2.93;;;18.80;40.80;;;;;;5030035;28;20464;-73
2024/01/30 02:10:23;;;;;;;3.47;3.27;;;18.80;40.70;;;;;;5022645;28;20246;-76
2024/01/30 02:12:49;;;;;;;3.03;2.83;;;18.80;40.80;;;;;;5036977;28;20238;-76
2024/01/30 02:15:15;;;;;;;3.07;2.90;;;18.80;40.80;;;;;;5000359;28;20234;-75
2024/01/30 02:17:41;;;;;;;3.13;2.93;;;18.80;40.80;;;;;;5021002;28;20427;-75
2024/01/30 02:20:07;;;;;;;3.03;2.83;;;18.80;40.80;;;;;;5025485;28;20226;-69
2024/01/30 02:22:35;;;;;;;3.43;3.23;;;18.80;40.80;;;;;;5021478;28;20313;-68
2024/01/30 02:25:00;;;;;;;3.40;3.20;;;18.80;40.80;;;;;;5035843;28;20463;-73
2024/01/30 02:27:26;;;;;;;2.80;2.60;;;18.80;40.70;;;;;;5031115;28;20875;-69
2024/01/30 02:29:51;;;;;;;3.00;2.80;;;18.80;40.80;;;;;;5021215;28;20234;-77
2024/01/30 02:32:17;;;;;;;2.90;2.80;;;18.80;40.70;;;;;;5020022;28;20310;-76
2024/01/30 02:34:42;;;;;;;3.27;3.07;;;18.80;40.70;;;;;;5023444;28;20225;-76
2024/01/30 02:37:08;;;;;;;3.33;3.13;;;18.80;40.70;;;;;;5025094;28;20265;-76
2024/01/30 02:39:34;;;;;;;3.30;3.07;;;18.80;40.80;;;;;;5014064;28;20230;-77
2024/01/30 02:41:59;;;;;;;3.00;2.80;;;18.80;40.80;;;;;;5026804;28;20230;-72
2024/01/30 02:44:25;;;;;;;2.77;2.67;;;18.80;40.80;;;;;;5020901;28;20238;-73
2024/01/30 02:46:50;;;;;;;3.30;3.10;;;18.80;40.80;;;;;;5024777;28;20301;-70
2024/01/30 02:49:16;;;;;;;3.23;3.03;;;18.80;40.80;;;;;;5032928;28;20306;-72
2024/01/30 02:51:42;;;;;;;3.53;3.33;;;18.80;40.70;;;;;;5031049;28;20238;-72
2024/01/30 02:54:07;;;;;;;2.93;2.73;;;18.80;40.80;;;;;;5021890;28;20637;-72
2024/01/30 02:56:33;;;;;;;3.77;3.57;;;18.80;40.80;;;;;;5026688;28;20686;-70
2024/01/30 02:58:58;;;;;;;3.10;2.90;;;18.80;40.80;;;;;;5023043;28;20233;-70
2024/01/30 03:01:24;;;;;;;3.10;2.90;;;18.80;40.80;;;;;;5016821;28;20714;-70
2024/01/30 03:03:50;;;;;;;3.07;2.87;;;18.80;40.70;;;;;;5029234;28;20260;-72
2024/01/30 03:06:17;;;;;;;3.50;3.30;;;18.80;40.80;;;;;;5029250;28;20305;-70
2024/01/30 03:08:43;;;;;;;3.33;3.13;;;18.80;40.80;;;;;;5018263;28;20233;-72
2024/01/30 03:11:08;;;;;;;3.40;3.20;;;18.80;40.70;;;;;;5025644;28;20442;-74
2024/01/30 03:13:34;;;;;;;2.90;2.70;;;18.70;40.80;;;;;;5045603;28;20263;-73
2024/01/30 03:15:59;;;;;;;3.30;3.10;;;18.80;40.80;;;;;;5031137;28;20328;-74
2024/01/30 03:18:25;;;;;;;3.43;3.23;;;18.80;40.70;;;;;;5036150;28;20221;-73
2024/01/30 03:20:50;;;;;;;3.60;3.40;;;18.80;40.80;;;;;;5030919;28;20277;-73
2024/01/30 03:23:16;;;;;;;3.47;3.27;;;18.70;40.70;;;;;;5021817;28;20229;-73
2024/01/30 03:25:41;;;;;;;4.03;3.83;;;18.80;40.80;;;;;;5014385;28;20250;-73
2024/01/30 03:28:07;;;;;;;3.30;3.10;;;18.80;40.80;;;;;;5032545;28;20923;-74
2024/01/30 03:30:34;;;;;;;3.30;3.10;;;18.80;40.80;;;;;;5032555;28;20733;-71
2024/01/30 03:32:59;;;;;;;3.00;2.80;;;18.80;40.80;;;;;;5031107;28;20250;-70
2024/01/30 03:35:25;;;;;;;3.50;3.30;;;18.80;40.80;;;;;;5010848;28;20607;-71
2024/01/30 03:37:50;;;;;;;3.57;3.37;;;18.80;40.80;;;;;;5032163;28;20214;-71
2024/01/30 03:40:16;;;;;;;3.17;2.97;;;18.80;40.80;;;;;;5029676;28;20251;-72
2024/01/30 03:42:41;;;;;;;3.20;3.00;;;18.80;40.80;;;;;;5022518;28;20500;-70
2024/01/30 03:45:07;;;;;;;3.43;3.23;;;18.70;40.80;;;;;;5028860;28;20622;-71
2024/01/30 03:47:33;;;;;;;3.33;3.13;;;18.80;40.80;;;;;;5025289;28;20245;-71
2024/01/30 03:49:58;;;;;;;3.30;3.10;;;18.70;40.70;;;;;;5032423;28;20978;-73
2024/01/30 03:52:24;;;;;;;3.20;3.00;;;18.70;40.70;;;;;;5031948;28;20241;-73
2024/01/30 03:54:49;;;;;;;3.30;3.10;;;18.70;40.70;;;;;;5033978;28;20634;-73
2024/01/30 03:57:15;;;;;;;3.77;3.47;;;18.80;40.80;;;;;;5030021;28;20248;-73
2024/01/30 03:59:43;;;;;;;3.63;3.33;;;18.70;40.70;;;;;;5025260;28;21283;-69
2024/01/30 04:02:11;;;;;;;2.80;2.60;;;18.80;40.80;;;;;;5034496;28;20773;-75
2024/01/30 04:04:36;;;;;;;2.93;2.73;;;18.70;40.80;;;;;;5014357;28;20427;-76
2024/01/30 04:07:02;;;;;;;3.37;3.17;;;18.80;40.80;;;;;;5025825;28;20438;-76
2024/01/30 04:09:28;;;;;;;2.70;2.60;;;18.70;41.50;;;;;;5016933;28;20226;-75
2024/01/30 04:11:54;;;;;;;3.53;3.33;;;18.80;40.80;;;;;;5020479;28;20681;-71
2024/01/30 04:14:19;;;;;;;3.63;3.43;;;18.80;40.80;;;;;;5018027;28;20219;-70
2024/01/30 04:16:45;;;;;;;3.30;3.10;;;18.70;40.70;;;;;;5023809;28;20225;-70
2024/01/30 04:19:10;;;;;;;3.10;2.90;;;18.70;40.70;;;;;;5026737;28;20226;-70
2024/01/30 04:21:36;;;;;;;3.60;3.40;;;18.80;40.80;;;;;;5018763;28;20238;-70
2024/01/30 04:24:01;;;;;;;3.50;3.30;;;18.70;40.70;;;;;;5020974;28;20308;-71
2024/01/30 04:26:27;;;;;;;3.17;2.97;;;18.80;40.80;;;;;;5027489;28;20666;-71
2024/01/30 04:28:53;;;;;;;3.53;3.27;;;18.80;40.80;;;;;;5007894;28;20235;-70
2024/01/30 04:31:18;;;;;;;3.73;3.43;;;18.80;40.70;;;;;;5035988;28;20313;-70
2024/01/30 04:33:44;;;;;;;3.00;2.80;;;18.80;40.80;;;;;;5034032;28;20237;-70
2024/01/30 04:36:12;;;;;;;3.40;3.20;;;18.80;40.70;;;;;;5021269;28;20231;-70
2024/01/30 04:38:40;;;;;;;2.70;2.60;;;18.80;40.70;;;;;;5020697;28;20685;-70
2024/01/30 04:41:07;;;;;;;3.20;3.00;;;18.80;40.80;;;;;;5021777;28;20575;-70
2024/01/30 04:43:32;;;;;;;3.67;3.47;;;18.80;40.70;;;;;;5032059;28;20426;-70
2024/01/30 04:45:58;;;;;;;3.43;3.23;;;18.80;40.70;;;;;;5034148;28;20442;-71
2024/01/30 04:48:23;;;;;;;2.97;2.87;;;18.80;40.70;;;;;;5028182;28;20230;-72
2024/01/30 04:50:49;;;;;;;3.57;3.37;;;18.80;40.70;;;;;;5022945;28;20699;-72
2024/01/30 04:53:14;;;;;;;3.13;3.03;;;18.80;40.60;;;;;;5020673;28;20297;-70
2024/01/30 04:55:40;;;;;;;3.27;3.07;;;18.80;40.70;;;;;;5027579;28;20283;-69
2024/01/30 04:58:05;;;;;;;2.70;2.60;;;18.80;40.60;;;;;;5027071;28;20707;-70
2024/01/30 05:00:31;;;;;;;3.10;2.90;;;18.80;40.60;;;;;;5033822;28;20252;-72
2024/01/30 05:02:56;;;;;;;3.40;3.20;;;18.80;40.60;;;;;;5032606;28;20232;-73
2024/01/30 05:05:22;;;;;;;3.30;3.10;;;18.80;40.70;;;;;;5026460;28;20251;-73
2024/01/30 05:07:47;;;;;;;3.93;3.73;;;18.90;40.70;;;;;;5021855;28;20749;-72
2024/01/30 05:10:13;;;;;;;3.17;2.97;;;18.80;40.60;;;;;;5024690;28;20243;-72
2024/01/30 05:12:39;;;;;;;3.20;3.00;;;18.80;40.60;;;;;;5022687;28;20234;-72
2024/01/30 05:15:05;;;;;;;3.27;3.07;;;18.90;40.70;;;;;;5021851;28;20242;-73
2024/01/30 05:17:31;;;;;;;3.50;3.30;;;18.80;40.50;;;;;;5027856;28;20703;-73
2024/01/30 05:19:56;;;;;;;3.37;3.17;;;18.90;40.60;;;;;;5025573;28;20277;-73
2024/01/30 05:22:22;;;;;;;3.30;3.10;;;18.90;40.50;;;;;;5007615;28;20230;-74
2024/01/30 05:24:47;;;;;;;3.33;3.13;;;18.90;40.50;;;;;;5024662;28;20231;-78
2024/01/30 05:27:14;;;;;;;3.53;3.23;;;18.90;40.50;;;;;;5026308;28;20223;-70
2024/01/30 05:29:40;;;;;;;2.83;2.73;;;18.90;40.50;;;;;;5019572;28;20279;-73
2024/01/30 05:32:06;;;;;;;3.10;3.00;;;18.90;40.40;;;;;;5026131;28;22799;-71
2024/01/30 05:34:32;;;;;;;3.00;2.80;;;18.90;40.50;;;;;;5019780;28;20445;-72
2024/01/30 05:36:59;;;;;;;2.70;2.60;;;18.90;40.50;;;;;;5018954;28;20252;-72
2024/01/30 05:39:25;;;;;;;3.10;2.90;;;18.90;40.40;;;;;;5027183;28;20560;-75
2024/01/30 05:41:50;;;;;;;3.10;2.90;;;18.90;40.40;;;;;;5028552;28;20273;-72
2024/01/30 05:44:16;;;;;;;3.00;2.80;;;18.90;40.40;;;;;;5034804;28;20221;-71
2024/01/30 05:46:42;;;;;;;2.87;2.63;;;18.90;40.30;;;;;;5030354;28;20218;-69
2024/01/30 05:49:07;;;;;;;2.77;2.67;;;18.90;40.30;;;;;;5021090;28;20227;-70
2024/01/30 05:51:33;;;;;;;2.70;2.50;;;18.90;40.40;;;;;;5025710;28;20223;-69
2024/01/30 05:53:58;;;;;;;2.90;2.70;;;18.90;40.30;;;;;;5033207;28;20218;-69
2024/01/30 05:56:24;;;;;;;3.20;2.97;;;18.90;40.30;;;;;;5034138;28;20248;-70
2024/01/30 05:58:52;;;;;;;2.47;2.37;;;18.90;40.40;;;;;;5028341;28;20256;-69
2024/01/30 06:01:18;;;;;;;2.63;2.53;;;18.90;40.30;;;;;;5016670;28;20322;-71
2024/01/30 06:03:43;;;;;;;3.40;3.20;;;18.90;40.30;;;;;;5020289;28;20855;-70
2024/01/30 06:06:09;;;;;;;2.80;2.60;;;18.90;40.30;;;;;;5026221;28;20227;-70
2024/01/30 06:08:35;;;;;;;2.63;2.53;;;18.90;40.30;;;;;;5017783;28;20268;-73
2024/01/30 06:11:00;;;;;;;2.40;2.30;;;18.90;40.30;;;;;;5000948;28;20261;-71
2024/01/30 06:13:26;;;;;;;3.70;2.77;;;18.90;40.30;;;;;;5024247;28;20250;-72
2024/01/30 06:15:52;;;;;;;2.87;2.67;;;18.90;40.30;;;;;;5030230;28;22114;-73
2024/01/30 06:18:18;;;;;;;3.30;3.10;;;18.90;40.30;;;;;;5034648;28;20232;-73
2024/01/30 06:20:44;;;;;;;2.80;2.60;;;18.90;40.30;;;;;;5030545;28;20276;-78
2024/01/30 06:23:10;;;;;;;3.20;3.00;;;18.90;40.30;;;;;;5023869;28;20234;-79
2024/01/30 06:25:35;;;;;;;2.83;2.73;;;19.00;40.30;;;;;;5024583;28;20226;-77
2024/01/30 06:28:01;;;;;;;3.10;2.97;;;18.90;40.30;;;;;;5019824;28;20460;-74
2024/01/30 06:30:26;;;;;;;3.47;3.27;;;19.00;40.30;;;;;;5018962;28;20230;-78
2024/01/30 06:32:52;;;;;;;3.40;3.20;;;19.00;40.40;;;;;;5032368;28;20215;-79
2024/01/30 06:35:17;;;;;;;3.00;2.80;;;19.00;40.30;;;;;;5048385;28;20642;-79
2024/01/30 06:37:43;;;;;;;2.80;2.60;;;18.90;40.20;;;;;;5019783;28;20223;-77
2024/01/30 06:40:09;;;;;;;2.70;2.60;;;19.00;40.30;;;;;;5029735;28;20733;-73
2024/01/30 06:42:35;;;;;;;2.70;2.50;;;19.00;40.30;;;;;;5031887;28;20229;-74
2024/01/30 06:45:00;;;;;;;2.80;2.70;;;18.90;40.20;;;;;;5023906;28;20449;-74
2024/01/30 06:47:26;;;;;;;2.57;2.37;;;18.90;40.20;;;;;;5016792;28;20238;-74
2024/01/30 06:49:51;;;;;;;2.97;2.77;;;18.90;40.20;;;;;;5033122;28;20214;-73
2024/01/30 06:52:17;;;;;;;3.13;2.70;;;18.90;40.20;;;;;;5023043;28;20222;-74
2024/01/30 06:54:42;;;;;;;2.83;2.63;;;18.90;40.30;;;;;;5029803;28;20230;-74
2024/01/30 06:57:11;;;;;;;3.20;3.00;;;18.90;40.30;;;;;;5039929;28;20234;-73
2024/01/30 06:59:43;;;;;;;3.20;2.90;;;19.00;40.30;;;;;;5017163;28;20265;-75
2024/01/30 07:02:09;;;;;;;5.40;2.97;;;19.00;40.40;;;;;;5031928;28;20457;-73
2024/01/30 07:04:34;;;;;;;3.40;3.20;;;18.90;40.30;;;;;;5028875;28;20532;-74
2024/01/30 07:07:00;;;;;;;3.00;2.80;;;18.90;40.20;;;;;;5019627;28;20222;-75
2024/01/30 07:09:25;;;;;;;2.90;2.70;;;18.90;40.20;;;;;;5020482;28;20293;-73
2024/01/30 07:11:52;;;;;;;3.20;3.00;;;19.00;40.30;;;;;;5018067;28;20237;-75
2024/01/30 07:14:18;;;;;;;3.40;3.10;;;18.90;40.30;;;;;;5022800;28;20702;-73
2024/01/30 07:16:43;;;;;;;3.20;3.00;;;18.90;40.20;;;;;;5025612;28;20454;-73
2024/01/30 07:19:09;;;;;;;3.27;3.07;;;19.00;40.50;;;;;;5026221;28;20256;-74
2024/01/30 07:21:34;;;;;;;2.73;2.53;;;18.90;40.30;;;;;;5015247;28;20713;-73
2024/01/30 07:24:00;;;;;;;3.20;2.70;;;18.90;40.30;;;;;;5026010;28;20754;-73
2024/01/30 07:26:26;;;;;;;3.00;2.80;;;18.90;40.30;;;;;;5028934;28;20244;-73
2024/01/30 07:28:51;;;;;;;3.33;3.03;;;18.90;40.30;;;;;;5032345;28;20230;-73
2024/01/30 07:31:17;;;;;;;2.93;2.73;;;19.00;40.50;;;;;;5019005;28;20849;-74
2024/01/30 07:33:42;;;;;;;2.73;2.53;;;18.90;40.30;;;;;;5019382;28;20233;-75
2024/01/30 07:36:08;;;;;;;3.00;2.80;;;19.00;40.30;;;;;;5013731;28;20353;-74
2024/01/30 07:38:34;;;;;;;3.03;2.83;;;18.90;40.20;;;;;;5034324;28;20283;-74
2024/01/30 07:40:59;;;;;;;3.23;3.03;;;18.90;40.30;;;;;;5029946;28;20758;-73
2024/01/30 07:43:25;;;;;;;3.23;2.93;;;19.00;40.30;;;;;;5040316;28;20317;-73
2024/01/30 07:45:51;;;;;;;3.13;2.90;;;18.90;40.30;;;;;;5034647;28;20305;-74
2024/01/30 07:48:16;;;;;;;2.43;2.33;;;18.90;40.30;;;;;;5028393;28;20218;-73
2024/01/30 07:50:42;;;;;;;2.83;2.63;;;18.90;40.30;;;;;;5032500;28;20233;-73
2024/01/30 07:53:08;;;;;;;2.83;2.63;;;18.90;40.30;;;;;;5031882;28;20226;-73
2024/01/30 07:55:33;;;;;;;3.30;3.00;;;18.90;40.40;;;;;;5020500;28;20833;-72
2024/01/30 07:57:59;;;;;;;2.97;2.87;;;18.90;40.30;;;;;;5022298;28;20296;-73
2024/01/30 08:00:24;;;;;;;2.87;2.67;;;18.90;40.30;;;;;;5022425;28;20725;-73
2024/01/30 08:02:50;;;;;;;3.13;2.93;;;18.90;40.30;;;;;;5027248;28;20214;-73
2024/01/30 08:05:16;;;;;;;2.87;2.67;;;18.90;40.40;;;;;;5021831;28;20207;-75
2024/01/30 08:07:45;;;;;;;2.70;2.50;;;18.90;40.30;;;;;;5031315;28;20674;-74
2024/01/30 08:10:12;;;;;;;2.97;2.77;;;18.90;40.30;;;;;;5011589;28;20227;-74
2024/01/30 08:12:38;;;;;;;3.57;3.37;;;18.90;40.40;;;;;;5015427;28;20752;-74
2024/01/30 08:15:04;;;;;;;3.20;3.00;;;18.90;40.30;;;;;;5027595;28;20422;-74
2024/01/30 08:17:30;;;;;;;3.07;2.87;;;18.90;40.40;;;;;;5029270;28;20234;-73
2024/01/30 08:19:55;;;;;;;3.47;3.27;;;18.90;40.30;;;;;;5026752;28;20427;-74
2024/01/30 08:22:21;;;;;;;3.27;3.07;;;18.90;40.40;;;;;;5022413;28;20706;-73
2024/01/30 08:24:46;;;;;;;2.60;2.50;;;18.90;40.30;;;;;;5021127;28;20226;-74
2024/01/30 08:27:12;;;;;;;2.43;2.33;;;18.90;40.40;;;;;;5021390;28;20215;-73
2024/01/30 08:29:38;;;;;;;2.90;2.70;;;18.90;40.40;;;;;;5025390;28;20241;-74
2024/01/30 08:32:06;;;;;;;2.67;2.47;;;18.90;40.40;;;;;;5022314;28;20230;-73
2024/01/30 08:34:31;;;;;;;3.10;2.90;;;18.90;40.40;;;;;;5020098;28;20218;-74
2024/01/30 08:36:57;;;;;;;2.67;2.57;;;18.90;40.30;;;;;;5037531;28;20438;-74
2024/01/30 08:39:22;;;;;;;3.00;2.80;;;18.90;40.50;;;;;;5033082;28;20210;-74
2024/01/30 08:41:48;;;;;;;3.17;2.97;;;18.90;40.40;;;;;;5033188;28;20261;-74
2024/01/30 08:44:13;;;;;;;2.97;2.77;;;18.90;40.40;;;;;;5031036;28;20235;-74
2024/01/30 08:46:39;;;;;;;2.67;2.57;;;18.80;40.40;;;;;;5028999;28;20231;-74
2024/01/30 08:49:04;;;;;;;3.07;2.77;;;18.80;40.40;;;;;;5019451;28;20223;-74
2024/01/30 08:51:30;;;;;;;2.37;2.27;;;18.90;40.50;;;;;;5018425;28;21120;-73
2024/01/30 08:53:56;;;;;;;3.03;2.83;;;18.80;40.40;;;;;;5029554;28;20225;-74
2024/01/30 08:56:22;;;;;;;3.00;2.80;;;18.80;40.40;;;;;;5018249;28;21260;-74
2024/01/30 08:58:47;;;;;;;2.70;2.50;;;18.80;40.40;;;;;;5015231;28;20235;-74
2024/01/30 09:01:13;;;;;;;3.00;2.80;;;18.90;40.50;;;;;;5023853;28;20284;-76
2024/01/30 09:03:40;;;;;;;2.63;2.53;;;18.80;40.40;;;;;;5025738;28;20310;-78
2024/01/30 09:06:10;;;;;;;2.80;2.60;;;18.90;40.60;;;;;;5035730;28;20575;-78
2024/01/30 09:08:35;;;;;;;2.37;2.27;;;18.90;40.50;;;;;;5028920;28;20445;-77
2024/01/30 09:11:01;;;;;;;2.47;2.37;;;18.90;40.60;;;;;;5021975;28;20442;-77
2024/01/30 09:13:26;;;;;;;2.60;2.50;;;18.80;40.40;;;;;;5022550;28;20648;-76
2024/01/30 09:15:52;;;;;;;2.67;2.47;;;18.80;40.40;;;;;;5021021;28;20253;-76
2024/01/30 09:18:18;;;;;;;3.97;3.20;;;18.80;40.50;;;;;;5038078;28;20222;-76
2024/01/30 09:20:47;;;;;;;2.60;2.40;;;18.80;40.50;;;;;;5034457;28;20226;-78
2024/01/30 09:23:13;;;;;;;2.53;2.33;;;18.80;40.50;;;;;;5032167;28;20803;-79
2024/01/30 09:25:38;;;;;;;2.73;2.60;;;18.80;40.50;;;;;;5036019;28;20430;-79
2024/01/30 09:28:04;;;;;;;2.60;2.50;;;18.80;41.30;;;;;;5024723;28;20686;-79
2024/01/30 09:30:30;;;;;;;2.77;2.67;;;18.80;40.50;;;;;;5023035;28;20219;-76
2024/01/30 09:32:55;;;;;;;2.90;2.70;;;18.80;40.60;;;;;;5023040;28;20445;-78
2024/01/30 09:35:21;;;;;;;2.90;2.70;;;18.80;40.60;;;;;;5029718;28;20245;-79
2024/01/30 09:37:46;;;;;;;3.00;2.80;;;18.80;40.50;;;;;;5035822;28;20304;-79
2024/01/30 09:40:12;;;;;;;2.70;2.50;;;18.80;40.60;;;;;;5028615;28;20305;-79
2024/01/30 09:42:38;;;;;;;3.00;2.80;;;18.80;40.50;;;;;;5034091;28;20662;-79
2024/01/30 09:45:05;;;;;;;2.57;2.43;;;18.80;40.60;;;;;;5036712;28;20909;-78
2024/01/30 09:47:45;;;;;;;3.13;2.93;;;18.80;40.60;;;;;;5029418;28;20477;-79
2024/01/30 09:50:12;;;;;;;3.10;2.90;;;18.80;40.60;;;;;;5033244;28;20455;-79
2024/01/30 09:52:38;;;;;;;2.20;2.10;;;18.80;40.60;;;;;;5028553;28;20518;-78
2024/01/30 09:55:04;;;;;;;2.40;2.30;;;18.80;40.60;;;;;;5038122;28;20529;-79
2024/01/30 09:57:30;;;;;;;2.43;2.33;;;18.80;40.60;;;;;;5034288;28;20230;-77
2024/01/30 09:59:55;;;;;;;2.93;2.73;;;18.80;40.60;;;;;;5024282;28;20439;-79
2024/01/30 10:02:22;;;;;;;2.50;2.40;;;18.80;40.60;;;;;;5026857;28;20609;-78
2024/01/30 10:04:49;;;;;;;3.07;2.77;;;18.80;40.60;;;;;;5026383;28;20608;-76
2024/01/30 10:07:15;;;;;;;2.97;2.63;;;18.80;40.60;;;;;;5024998;28;21188;-77
2024/01/30 10:09:41;;;;;;;2.40;2.30;;;18.80;40.60;;;;;;5024430;28;20543;-79
2024/01/30 10:12:07;;;;;;;2.63;2.43;;;18.80;40.60;;;;;;5036079;28;20456;-79
2024/01/30 10:14:33;;;;;;;2.63;2.53;;;18.80;40.60;;;;;;5010057;28;20261;-76
2024/01/30 10:16:59;;;;;;;2.40;2.30;;;18.80;40.70;;;;;;5022206;28;20597;-79
2024/01/30 10:19:24;;;;;;;2.70;2.60;;;18.80;40.60;;;;;;5033208;28;20241;-79
2024/01/30 10:21:50;;;;;;;2.77;2.60;;;18.80;40.70;;;;;;5025969;28;20429;-77
2024/01/30 10:24:17;;;;;;;2.30;2.20;;;18.80;40.70;;;;;;5017049;28;20227;-79
2024/01/30 10:26:44;;;;;;;3.00;2.80;;;18.80;40.70;;;;;;5033310;28;20218;-79
2024/01/30 10:29:09;;;;;;;2.53;2.43;;;18.80;40.70;;;;;;5020801;28;20911;-77
2024/01/30 10:31:35;;;;;;;2.73;2.30;;;18.70;40.60;;;;;;5022328;28;20512;-74
2024/01/30 10:34:00;;;;;;;2.67;2.57;;;18.80;40.70;;;;;;5017210;28;20673;-74
2024/01/30 10:36:29;;;;;;;2.50;2.40;;;18.80;40.70;;;;;;5020731;28;20372;-74
2024/01/30 10:38:59;;;;;;;2.60;2.50;;;18.80;40.70;;;;;;5029745;28;20229;-75
2024/01/30 10:41:27;;;;;;;2.77;2.67;;;18.80;40.70;;;;;;5036866;28;20458;-79
2024/01/30 10:44:07;;;;;;;2.57;2.47;;;18.80;40.70;;;;;;5025927;28;20435;-79
2024/01/30 10:46:35;;;;;;;3.13;2.93;;;18.80;40.70;;;;;;5022853;28;20774;-74
2024/01/30 10:49:01;;;;;;;2.40;2.20;;;18.70;40.70;;;;;;5042366;28;20434;-78
2024/01/30 10:51:27;;;;;;;2.57;2.47;;;18.80;40.70;;;;;;5023305;28;20517;-74
2024/01/30 10:53:53;;;;;;;2.27;2.17;;;18.70;40.70;;;;;;5043721;28;20264;-74
2024/01/30 10:56:22;;;;;;;2.47;2.37;;;18.70;40.70;;;;;;5020327;28;20476;-74
2024/01/30 10:58:53;;;;;;;2.87;2.40;;;18.80;40.70;;;;;;5027029;28;20774;-73
2024/01/30 11:01:22;;;;;;;2.30;2.20;;;18.70;40.70;;;;;;5030557;28;20441;-74
2024/01/30 11:03:50;;;;;;;2.70;2.50;;;18.80;40.70;;;;;;5023886;28;20495;-74
2024/01/30 11:06:18;;;;;;;2.50;2.40;;;18.80;40.70;;;;;;5031440;28;21234;-71
2024/01/30 11:08:45;;;;;;;2.30;2.20;;;18.80;40.70;;;;;;5038005;28;20531;-69
2024/01/30 11:11:10;;;;;;;2.97;2.77;;;18.70;40.60;;;;;;5036336;28;20464;-73
2024/01/30 11:13:36;;;;;;;2.33;2.23;;;18.80;40.70;;;;;;5031675;28;20438;-71
2024/01/30 11:16:06;;;;;;;2.57;2.40;;;18.70;40.70;;;;;;5014726;28;20775;-70
2024/01/30 11:18:33;;;;;;;4.47;2.70;;;18.80;40.80;;;;;;5020705;28;20226;-70
2024/01/30 11:21:01;;;;;;;2.40;2.30;;;18.70;40.70;;;;;;5019544;28;20499;-74
2024/01/30 11:23:30;;;;;;;2.60;2.50;;;18.70;40.70;;;;;;5023639;28;20445;-73
2024/01/30 11:25:57;;;;;;;2.80;2.60;;;18.70;40.70;;;;;;5027426;28;20437;-73
2024/01/30 11:28:23;;;;;;;2.90;2.80;;;18.70;40.70;;;;;;5024312;28;20447;-73
2024/01/30 11:30:50;;;;;;;2.60;2.50;;;18.70;40.70;;;;;;5029577;28;20831;-73
2024/01/30 11:33:27;;;;;;;3.00;2.80;;;18.70;40.70;;;;;;5014973;28;20226;-73
2024/01/30 11:35:53;;;;;;;2.80;2.60;;;18.70;40.70;;;;;;5013394;28;21011;-73
2024/01/30 11:38:18;;;;;;;3.13;2.93;;;18.70;40.70;;;;;;5019527;28;20423;-74
2024/01/30 11:40:44;;;;;;;2.47;2.37;;;18.70;40.70;;;;;;5022974;28;20229;-73
2024/01/30 11:43:10;;;;;;;3.20;3.00;;;18.70;40.70;;;;;;5032645;28;20220;-74
2024/01/30 11:45:36;;;;;;;2.83;2.73;;;18.70;40.80;;;;;;5049475;28;20219;-73
2024/01/30 11:48:03;;;;;;;2.70;2.50;;;18.70;40.70;;;;;;5025887;28;20214;-73
2024/01/30 11:50:33;;;;;;;3.13;2.93;;;18.70;40.70;;;;;;5015274;28;20972;-70
2024/01/30 11:53:02;;;;;;;3.10;2.90;;;18.70;40.70;;;;;;5018631;28;20455;-71
2024/01/30 11:55:29;;;;;;;2.93;2.73;;;18.70;40.70;;;;;;5015996;28;20533;-69
2024/01/30 11:57:56;;;;;;;2.97;2.77;;;18.70;40.80;;;;;;5021677;28;20420;-69
2024/01/30 12:00:22;;;;;;;2.30;2.20;;;18.70;40.80;;;;;;5029662;28;20473;-76
2024/01/30 12:02:55;;;;;;;3.00;2.80;;;18.70;40.80;;;;;;5024401;28;20498;-72
2024/01/30 12:05:27;;;;;;;2.97;2.77;;;18.70;40.80;;;;;;5043708;28;20563;-75
2024/01/30 12:07:53;;;;;;;2.43;2.23;;;18.70;40.80;;;;;;5031743;28;20484;-76
2024/01/30 12:10:19;;;;;;;2.83;2.60;;;18.70;40.80;;;;;;5018972;28;20956;-76
2024/01/30 12:12:49;;;;;;;2.47;2.37;;;18.70;40.80;;;;;;5033588;28;20218;-76
2024/01/30 12:15:16;;;;;;;2.50;2.40;;;18.70;40.80;;;;;;5036426;28;20222;-73
2024/01/30 12:17:41;;;;;;;2.60;2.50;;;18.70;40.80;;;;;;5029948;28;20484;-76
2024/01/30 12:20:12;;;;;;;2.77;2.57;;;18.70;40.80;;;;;;5025940;28;21036;-76
2024/01/30 12:22:42;;;;;;;3.00;2.80;;;18.70;40.80;;;;;;5039401;28;20235;-76
2024/01/30 12:25:09;;;;;;;2.13;2.00;;;18.70;40.90;;;;;;5022130;28;20433;-76
2024/01/30 12:27:35;;;;;;;3.47;3.27;;;18.70;40.90;;;;;;5027128;28;20442;-76
2024/01/30 12:30:00;;;;;;;2.43;2.13;;;18.70;40.90;;;;;;5027013;28;21024;-75
2024/01/30 12:32:26;;;;;;;3.10;2.90;;;18.70;40.90;;;;;;5029916;28;20498;-73
2024/01/30 12:34:56;;;;;;;2.53;2.40;;;18.70;40.80;;;;;;5034214;28;20312;-77
2024/01/30 12:37:24;;;;;;;2.40;2.30;;;18.70;40.90;;;;;;5026285;28;20772;-76
2024/01/30 12:39:51;;;;;;;2.53;2.43;;;18.70;40.80;;;;;;5038201;28;21022;-76
2024/01/30 12:42:17;;;;;;;2.57;2.47;;;18.70;40.90;;;;;;5037264;28;20442;-76